KRHI/RHI METAR and TAF weather

Enter ICAO airport designator
Station Type Date Time Source
KRHI METAR 2020/03/28 07:53 UTC NOAA

KRHI 280753Z AUTO 00000KT 9SM -RA OVC047 01/01 A2985 RMK AO2 SLP120 P0001 T00110006


Station Type Date Time Source
KRHI Decoded METAR 2020/03/28 07:53 UTC NOAA

RHINELANDER-ONEIDA CO AIRPORT , WI, United States (KRHI) 45-38N 89-29W 485M
Mar 28, 2020 - 03:53 AM EDT / 2020.03.28 0753 UTC
Wind: Calm:0
Visibility: 9 mile(s):0
Sky conditions: overcast
Weather: light rain
Precipitation last hour: 0.01 inches
Temperature: 34.0 F (1.1 C)
Dew Point: 33.1 F (0.6 C)
Relative Humidity: 96%
Pressure (altimeter): 29.85 in. Hg (1010 hPa)
ob: KRHI 280753Z AUTO 00000KT 9SM -RA OVC047 01/01 A2985 RMK AO2 SLP120 P0001 T00110006
cycle: 8

Station Type Date Time Source
KRHI TAF 2020/03/28 06:42 UTC NOAA

TAF KRHI 280539Z 2806/2906 10004KT P6SM SCT030 OVC070
TEMPO 2806/2810 4SM -SHRA BR BKN030
FM281000 07007KT 6SM -SHRA BR OVC023
FM281600 07011G21KT 6SM -SHRA BR OVC017 WS020/09040KT
FM290000 08014G24KT 5SM SHRA BR OVC006 WS020/08040KT
FM290500 08013G22KT 4SM SHRA BR OVC005

Example: see airport list